sensor_id;sensor_type;location;lat;lon;timestamp;P1;durP1;ratioP1;P2;durP2;ratioP2
64932;SDS011;51446;53.850;10.662;2023-06-05T00:00:43;7.03;;;4.23;;
64932;SDS011;51446;53.850;10.662;2023-06-05T00:03:08;8.67;;;4.40;;
64932;SDS011;51446;53.850;10.662;2023-06-05T00:05:34;9.07;;;4.50;;
64932;SDS011;51446;53.850;10.662;2023-06-05T00:07:59;6.97;;;4.00;;
64932;SDS011;51446;53.850;10.662;2023-06-05T00:10:24;5.67;;;3.73;;
64932;SDS011;51446;53.850;10.662;2023-06-05T00:12:50;4.57;;;3.88;;
64932;SDS011;51446;53.850;10.662;2023-06-05T00:15:15;6.05;;;3.72;;
64932;SDS011;51446;53.850;10.662;2023-06-05T00:17:40;6.97;;;4.43;;
64932;SDS011;51446;53.850;10.662;2023-06-05T00:20:06;10.80;;;4.63;;
64932;SDS011;51446;53.850;10.662;2023-06-05T00:22:34;5.03;;;3.83;;
64932;SDS011;51446;53.850;10.662;2023-06-05T00:25:00;7.05;;;4.47;;
64932;SDS011;51446;53.850;10.662;2023-06-05T00:27:25;7.07;;;4.30;;
64932;SDS011;51446;53.850;10.662;2023-06-05T00:29:50;7.30;;;4.37;;
64932;SDS011;51446;53.850;10.662;2023-06-05T00:32:16;5.90;;;4.00;;
64932;SDS011;51446;53.850;10.662;2023-06-05T00:34:41;5.83;;;4.33;;
64932;SDS011;51446;53.850;10.662;2023-06-05T00:37:06;6.50;;;4.47;;
64932;SDS011;51446;53.850;10.662;2023-06-05T00:39:32;7.57;;;5.00;;
64932;SDS011;51446;53.850;10.662;2023-06-05T00:41:57;9.23;;;4.70;;
64932;SDS011;51446;53.850;10.662;2023-06-05T00:44:24;9.32;;;5.40;;
64932;SDS011;51446;53.850;10.662;2023-06-05T00:46:50;11.00;;;5.23;;
64932;SDS011;51446;53.850;10.662;2023-06-05T00:49:17;9.35;;;5.30;;
64932;SDS011;51446;53.850;10.662;2023-06-05T00:51:44;8.80;;;5.00;;
64932;SDS011;51446;53.850;10.662;2023-06-05T00:54:11;10.25;;;5.00;;
64932;SDS011;51446;53.850;10.662;2023-06-05T00:56:38;6.53;;;4.47;;
64932;SDS011;51446;53.850;10.662;2023-06-05T00:59:05;6.32;;;4.97;;
64932;SDS011;51446;53.850;10.662;2023-06-05T01:01:31;8.07;;;4.93;;
64932;SDS011;51446;53.850;10.662;2023-06-05T01:03:57;8.43;;;5.03;;
64932;SDS011;51446;53.850;10.662;2023-06-05T01:06:24;7.33;;;5.17;;
64932;SDS011;51446;53.850;10.662;2023-06-05T01:08:51;10.23;;;5.03;;
64932;SDS011;51446;53.850;10.662;2023-06-05T01:14:16;7.95;;;5.00;;
64932;SDS011;51446;53.850;10.662;2023-06-05T01:16:53;10.50;;;5.23;;
64932;SDS011;51446;53.850;10.662;2023-06-05T01:19:19;6.25;;;5.10;;
64932;SDS011;51446;53.850;10.662;2023-06-05T01:21:46;7.18;;;4.90;;
64932;SDS011;51446;53.850;10.662;2023-06-05T01:24:14;7.80;;;4.80;;
64932;SDS011;51446;53.850;10.662;2023-06-05T01:27:04;8.00;;;5.00;;
64932;SDS011;51446;53.850;10.662;2023-06-05T01:32:52;7.00;;;4.47;;
64932;SDS011;51446;53.850;10.662;2023-06-05T01:35:12;5.97;;;4.80;;
64932;SDS011;51446;53.850;10.662;2023-06-05T01:37:47;6.13;;;5.13;;
64932;SDS011;51446;53.850;10.662;2023-06-05T01:40:17;9.02;;;4.90;;
64932;SDS011;51446;53.850;10.662;2023-06-05T01:42:46;6.90;;;4.60;;
64932;SDS011;51446;53.850;10.662;2023-06-05T01:45:12;6.00;;;4.28;;
64932;SDS011;51446;53.850;10.662;2023-06-05T01:47:39;6.63;;;4.68;;
64932;SDS011;51446;53.850;10.662;2023-06-05T01:50:05;8.82;;;4.75;;
64932;SDS011;51446;53.850;10.662;2023-06-05T01:52:33;8.15;;;5.32;;
64932;SDS011;51446;53.850;10.662;2023-06-05T01:54:59;5.60;;;4.43;;
64932;SDS011;51446;53.850;10.662;2023-06-05T01:57:29;5.15;;;4.22;;
64932;SDS011;51446;53.850;10.662;2023-06-05T01:59:56;5.88;;;4.40;;
64932;SDS011;51446;53.850;10.662;2023-06-05T02:02:21;6.90;;;4.47;;
64932;SDS011;51446;53.850;10.662;2023-06-05T02:04:47;8.20;;;4.90;;
64932;SDS011;51446;53.850;10.662;2023-06-05T02:07:13;7.95;;;4.80;;
64932;SDS011;51446;53.850;10.662;2023-06-05T02:09:39;6.15;;;4.30;;
64932;SDS011;51446;53.850;10.662;2023-06-05T02:12:05;5.93;;;4.20;;
64932;SDS011;51446;53.850;10.662;2023-06-05T02:14:31;6.68;;;4.32;;
64932;SDS011;51446;53.850;10.662;2023-06-05T02:17:05;6.53;;;4.50;;
64932;SDS011;51446;53.850;10.662;2023-06-05T02:19:31;7.23;;;4.53;;
64932;SDS011;51446;53.850;10.662;2023-06-05T02:21:57;6.75;;;4.40;;
64932;SDS011;51446;53.850;10.662;2023-06-05T02:24:22;4.70;;;4.23;;
64932;SDS011;51446;53.850;10.662;2023-06-05T02:26:48;5.17;;;4.23;;
64932;SDS011;51446;53.850;10.662;2023-06-05T02:29:13;5.50;;;4.27;;
64932;SDS011;51446;53.850;10.662;2023-06-05T02:31:38;6.25;;;4.38;;
64932;SDS011;51446;53.850;10.662;2023-06-05T02:34:04;4.80;;;3.90;;
64932;SDS011;51446;53.850;10.662;2023-06-05T02:36:30;5.27;;;4.57;;
64932;SDS011;51446;53.850;10.662;2023-06-05T02:38:58;6.05;;;4.97;;
64932;SDS011;51446;53.850;10.662;2023-06-05T02:41:24;5.43;;;4.82;;
64932;SDS011;51446;53.850;10.662;2023-06-05T02:43:51;6.10;;;3.90;;
64932;SDS011;51446;53.850;10.662;2023-06-05T02:46:17;7.70;;;4.97;;
64932;SDS011;51446;53.850;10.662;2023-06-05T02:48:42;8.83;;;6.03;;
64932;SDS011;51446;53.850;10.662;2023-06-05T02:51:08;9.47;;;5.90;;
64932;SDS011;51446;53.850;10.662;2023-06-05T02:53:35;5.82;;;4.88;;
64932;SDS011;51446;53.850;10.662;2023-06-05T02:56:01;5.87;;;5.00;;
64932;SDS011;51446;53.850;10.662;2023-06-05T02:58:26;6.37;;;4.83;;
64932;SDS011;51446;53.850;10.662;2023-06-05T03:00:53;6.43;;;5.10;;
64932;SDS011;51446;53.850;10.662;2023-06-05T03:03:20;6.45;;;5.35;;
64932;SDS011;51446;53.850;10.662;2023-06-05T03:05:50;9.52;;;6.25;;
64932;SDS011;51446;53.850;10.662;2023-06-05T03:08:17;7.00;;;5.40;;
64932;SDS011;51446;53.850;10.662;2023-06-05T03:10:42;7.23;;;5.60;;
64932;SDS011;51446;53.850;10.662;2023-06-05T03:13:07;8.97;;;6.03;;
64932;SDS011;51446;53.850;10.662;2023-06-05T03:15:33;9.47;;;5.43;;
64932;SDS011;51446;53.850;10.662;2023-06-05T03:18:00;8.68;;;5.55;;
64932;SDS011;51446;53.850;10.662;2023-06-05T03:20:25;7.30;;;5.07;;
64932;SDS011;51446;53.850;10.662;2023-06-05T03:22:51;7.03;;;4.87;;
64932;SDS011;51446;53.850;10.662;2023-06-05T03:25:16;10.60;;;6.33;;
64932;SDS011;51446;53.850;10.662;2023-06-05T03:27:42;10.55;;;6.22;;
64932;SDS011;51446;53.850;10.662;2023-06-05T03:30:07;10.73;;;6.70;;
64932;SDS011;51446;53.850;10.662;2023-06-05T03:32:33;8.48;;;5.55;;
64932;SDS011;51446;53.850;10.662;2023-06-05T03:34:59;9.53;;;6.37;;
64932;SDS011;51446;53.850;10.662;2023-06-05T03:37:24;8.70;;;6.20;;
64932;SDS011;51446;53.850;10.662;2023-06-05T03:39:49;11.77;;;6.50;;
64932;SDS011;51446;53.850;10.662;2023-06-05T03:42:15;8.13;;;6.23;;
64932;SDS011;51446;53.850;10.662;2023-06-05T03:44:40;8.70;;;6.38;;
64932;SDS011;51446;53.850;10.662;2023-06-05T03:47:06;9.43;;;6.97;;
64932;SDS011;51446;53.850;10.662;2023-06-05T03:49:32;8.85;;;6.05;;
64932;SDS011;51446;53.850;10.662;2023-06-05T03:51:58;13.57;;;6.77;;
64932;SDS011;51446;53.850;10.662;2023-06-05T03:54:29;15.10;;;7.30;;
64932;SDS011;51446;53.850;10.662;2023-06-05T03:56:57;12.03;;;6.97;;
64932;SDS011;51446;53.850;10.662;2023-06-05T03:59:23;10.68;;;6.47;;
64932;SDS011;51446;53.850;10.662;2023-06-05T04:01:50;10.23;;;6.28;;
64932;SDS011;51446;53.850;10.662;2023-06-05T04:04:15;11.03;;;6.80;;
64932;SDS011;51446;53.850;10.662;2023-06-05T04:06:42;12.20;;;6.25;;
64932;SDS011;51446;53.850;10.662;2023-06-05T04:09:08;13.17;;;6.73;;
64932;SDS011;51446;53.850;10.662;2023-06-05T04:11:38;9.43;;;6.72;;
64932;SDS011;51446;53.850;10.662;2023-06-05T04:14:04;8.35;;;6.63;;
64932;SDS011;51446;53.850;10.662;2023-06-05T04:16:30;7.60;;;5.90;;
64932;SDS011;51446;53.850;10.662;2023-06-05T04:18:56;9.70;;;6.57;;
64932;SDS011;51446;53.850;10.662;2023-06-05T04:21:21;8.30;;;6.53;;
64932;SDS011;51446;53.850;10.662;2023-06-05T04:23:46;10.87;;;6.40;;
64932;SDS011;51446;53.850;10.662;2023-06-05T04:26:11;11.93;;;6.53;;
64932;SDS011;51446;53.850;10.662;2023-06-05T04:28:38;8.25;;;6.07;;
64932;SDS011;51446;53.850;10.662;2023-06-05T04:31:04;10.67;;;6.07;;
64932;SDS011;51446;53.850;10.662;2023-06-05T04:33:29;15.23;;;6.70;;
64932;SDS011;51446;53.850;10.662;2023-06-05T04:35:54;10.53;;;6.10;;
64932;SDS011;51446;53.850;10.662;2023-06-05T04:38:20;12.37;;;6.53;;
64932;SDS011;51446;53.850;10.662;2023-06-05T04:40:49;8.27;;;5.75;;
64932;SDS011;51446;53.850;10.662;2023-06-05T04:43:15;14.02;;;6.45;;
64932;SDS011;51446;53.850;10.662;2023-06-05T04:45:40;12.53;;;6.10;;
64932;SDS011;51446;53.850;10.662;2023-06-05T04:48:07;9.97;;;6.10;;
64932;SDS011;51446;53.850;10.662;2023-06-05T04:50:33;8.63;;;5.60;;
64932;SDS011;51446;53.850;10.662;2023-06-05T04:52:58;10.13;;;5.53;;
64932;SDS011;51446;53.850;10.662;2023-06-05T04:55:24;9.30;;;5.70;;
64932;SDS011;51446;53.850;10.662;2023-06-05T04:57:49;8.17;;;6.23;;
64932;SDS011;51446;53.850;10.662;2023-06-05T05:00:15;10.77;;;6.13;;
64932;SDS011;51446;53.850;10.662;2023-06-05T05:02:41;8.97;;;5.87;;
64932;SDS011;51446;53.850;10.662;2023-06-05T05:05:07;12.48;;;6.50;;
64932;SDS011;51446;53.850;10.662;2023-06-05T05:07:33;9.30;;;5.60;;
64932;SDS011;51446;53.850;10.662;2023-06-05T05:09:59;10.40;;;6.03;;
64932;SDS011;51446;53.850;10.662;2023-06-05T05:12:24;8.52;;;5.53;;
64932;SDS011;51446;53.850;10.662;2023-06-05T05:14:50;9.93;;;5.10;;
64932;SDS011;51446;53.850;10.662;2023-06-05T05:17:15;7.90;;;5.43;;
64932;SDS011;51446;53.850;10.662;2023-06-05T05:19:44;9.88;;;5.90;;
64932;SDS011;51446;53.850;10.662;2023-06-05T05:22:10;9.75;;;5.95;;
64932;SDS011;51446;53.850;10.662;2023-06-05T05:24:35;8.50;;;5.68;;
64932;SDS011;51446;53.850;10.662;2023-06-05T05:27:01;10.43;;;6.33;;
64932;SDS011;51446;53.850;10.662;2023-06-05T05:29:26;8.53;;;5.67;;
64932;SDS011;51446;53.850;10.662;2023-06-05T05:31:52;8.23;;;5.30;;
64932;SDS011;51446;53.850;10.662;2023-06-05T05:34:17;8.80;;;5.60;;
64932;SDS011;51446;53.850;10.662;2023-06-05T05:36:43;11.20;;;5.83;;
64932;SDS011;51446;53.850;10.662;2023-06-05T05:39:08;8.13;;;5.40;;
64932;SDS011;51446;53.850;10.662;2023-06-05T05:41:35;11.57;;;5.65;;
64932;SDS011;51446;53.850;10.662;2023-06-05T05:44:00;11.07;;;5.10;;
64932;SDS011;51446;53.850;10.662;2023-06-05T05:46:25;11.63;;;5.47;;
64932;SDS011;51446;53.850;10.662;2023-06-05T05:48:51;12.17;;;4.33;;
64932;SDS011;51446;53.850;10.662;2023-06-05T05:51:16;16.48;;;5.53;;
64932;SDS011;51446;53.850;10.662;2023-06-05T05:53:42;9.87;;;4.77;;
64932;SDS011;51446;53.850;10.662;2023-06-05T05:56:07;10.87;;;4.67;;
64932;SDS011;51446;53.850;10.662;2023-06-05T05:58:32;12.57;;;5.13;;
64932;SDS011;51446;53.850;10.662;2023-06-05T06:00:59;9.67;;;4.57;;
64932;SDS011;51446;53.850;10.662;2023-06-05T06:03:25;7.80;;;4.25;;
64932;SDS011;51446;53.850;10.662;2023-06-05T06:05:54;14.05;;;4.80;;
64932;SDS011;51446;53.850;10.662;2023-06-05T06:08:21;12.05;;;4.75;;
64932;SDS011;51446;53.850;10.662;2023-06-05T06:10:46;8.67;;;4.23;;
64932;SDS011;51446;53.850;10.662;2023-06-05T06:13:12;8.13;;;4.63;;
64932;SDS011;51446;53.850;10.662;2023-06-05T06:15:38;6.22;;;4.38;;
64932;SDS011;51446;53.850;10.662;2023-06-05T06:18:04;15.50;;;4.50;;
64932;SDS011;51446;53.850;10.662;2023-06-05T06:20:30;11.80;;;5.17;;
64932;SDS011;51446;53.850;10.662;2023-06-05T06:22:56;10.52;;;4.40;;
64932;SDS011;51446;53.850;10.662;2023-06-05T06:25:22;10.20;;;4.30;;
64932;SDS011;51446;53.850;10.662;2023-06-05T06:27:51;8.27;;;3.53;;
64932;SDS011;51446;53.850;10.662;2023-06-05T06:30:18;10.13;;;3.45;;
64932;SDS011;51446;53.850;10.662;2023-06-05T06:32:44;7.28;;;3.55;;
64932;SDS011;51446;53.850;10.662;2023-06-05T06:35:10;8.63;;;3.80;;
64932;SDS011;51446;53.850;10.662;2023-06-05T06:37:35;9.13;;;3.80;;
64932;SDS011;51446;53.850;10.662;2023-06-05T06:40:01;5.88;;;3.83;;
64932;SDS011;51446;53.850;10.662;2023-06-05T06:42:29;10.40;;;3.88;;
64932;SDS011;51446;53.850;10.662;2023-06-05T06:44:54;9.20;;;3.80;;
64932;SDS011;51446;53.850;10.662;2023-06-05T06:47:23;9.90;;;3.40;;
64932;SDS011;51446;53.850;10.662;2023-06-05T06:49:50;7.15;;;3.40;;
64932;SDS011;51446;53.850;10.662;2023-06-05T06:52:16;5.43;;;2.97;;
64932;SDS011;51446;53.850;10.662;2023-06-05T06:54:43;7.80;;;3.35;;
64932;SDS011;51446;53.850;10.662;2023-06-05T06:57:09;8.73;;;3.70;;
64932;SDS011;51446;53.850;10.662;2023-06-05T06:59:34;9.13;;;3.47;;
64932;SDS011;51446;53.850;10.662;2023-06-05T07:02:09;8.13;;;3.40;;
64932;SDS011;51446;53.850;10.662;2023-06-05T07:04:36;7.93;;;3.53;;
64932;SDS011;51446;53.850;10.662;2023-06-05T07:07:01;8.77;;;3.80;;
64932;SDS011;51446;53.850;10.662;2023-06-05T07:09:27;10.52;;;3.50;;
64932;SDS011;51446;53.850;10.662;2023-06-05T07:11:53;9.87;;;3.57;;
64932;SDS011;51446;53.850;10.662;2023-06-05T07:14:19;7.88;;;3.83;;
64932;SDS011;51446;53.850;10.662;2023-06-05T07:16:45;10.57;;;3.27;;
64932;SDS011;51446;53.850;10.662;2023-06-05T07:19:10;9.45;;;3.50;;
64932;SDS011;51446;53.850;10.662;2023-06-05T07:21:38;11.40;;;3.43;;
64932;SDS011;51446;53.850;10.662;2023-06-05T07:24:03;5.65;;;3.08;;
64932;SDS011;51446;53.850;10.662;2023-06-05T07:26:30;10.93;;;3.20;;
64932;SDS011;51446;53.850;10.662;2023-06-05T07:28:55;10.23;;;3.40;;
64932;SDS011;51446;53.850;10.662;2023-06-05T07:31:21;7.63;;;2.90;;
64932;SDS011;51446;53.850;10.662;2023-06-05T07:33:46;7.40;;;2.70;;
64932;SDS011;51446;53.850;10.662;2023-06-05T07:36:11;5.87;;;2.70;;
64932;SDS011;51446;53.850;10.662;2023-06-05T07:38:38;7.30;;;2.47;;
64932;SDS011;51446;53.850;10.662;2023-06-05T07:41:04;6.80;;;2.70;;
64932;SDS011;51446;53.850;10.662;2023-06-05T07:43:30;6.10;;;3.10;;
64932;SDS011;51446;53.850;10.662;2023-06-05T07:45:55;7.70;;;2.77;;
64932;SDS011;51446;53.850;10.662;2023-06-05T07:48:20;3.63;;;2.55;;
64932;SDS011;51446;53.850;10.662;2023-06-05T07:50:46;6.93;;;2.47;;
64932;SDS011;51446;53.850;10.662;2023-06-05T07:53:11;25.53;;;3.50;;
64932;SDS011;51446;53.850;10.662;2023-06-05T07:55:36;7.37;;;2.70;;
64932;SDS011;51446;53.850;10.662;2023-06-05T07:58:02;7.00;;;2.40;;
64932;SDS011;51446;53.850;10.662;2023-06-05T08:00:27;6.20;;;2.30;;
64932;SDS011;51446;53.850;10.662;2023-06-05T08:02:53;7.75;;;2.20;;
64932;SDS011;51446;53.850;10.662;2023-06-05T08:05:18;7.07;;;2.40;;
64932;SDS011;51446;53.850;10.662;2023-06-05T08:07:44;4.88;;;2.30;;
64932;SDS011;51446;53.850;10.662;2023-06-05T08:10:10;5.43;;;2.37;;
64932;SDS011;51446;53.850;10.662;2023-06-05T08:12:35;9.13;;;2.77;;
64932;SDS011;51446;53.850;10.662;2023-06-05T08:15:00;13.80;;;2.87;;
64932;SDS011;51446;53.850;10.662;2023-06-05T08:17:27;5.20;;;2.20;;
64932;SDS011;51446;53.850;10.662;2023-06-05T08:19:53;6.78;;;2.22;;
64932;SDS011;51446;53.850;10.662;2023-06-05T08:22:18;7.60;;;2.03;;
64932;SDS011;51446;53.850;10.662;2023-06-05T08:24:43;6.17;;;1.70;;
64932;SDS011;51446;53.850;10.662;2023-06-05T08:27:08;3.00;;;1.43;;
64932;SDS011;51446;53.850;10.662;2023-06-05T08:29:35;4.35;;;1.90;;
64932;SDS011;51446;53.850;10.662;2023-06-05T08:32:02;2.72;;;1.60;;
64932;SDS011;51446;53.850;10.662;2023-06-05T08:34:28;3.03;;;1.90;;
64932;SDS011;51446;53.850;10.662;2023-06-05T08:36:55;5.47;;;1.90;;
64932;SDS011;51446;53.850;10.662;2023-06-05T08:39:23;5.97;;;2.03;;
64932;SDS011;51446;53.850;10.662;2023-06-05T08:41:52;8.02;;;1.90;;
64932;SDS011;51446;53.850;10.662;2023-06-05T08:44:17;5.43;;;2.20;;
64932;SDS011;51446;53.850;10.662;2023-06-05T08:46:42;3.50;;;1.83;;
64932;SDS011;51446;53.850;10.662;2023-06-05T08:49:10;6.53;;;2.08;;
64932;SDS011;51446;53.850;10.662;2023-06-05T08:51:37;4.30;;;1.90;;
64932;SDS011;51446;53.850;10.662;2023-06-05T08:54:05;3.80;;;1.80;;
64932;SDS011;51446;53.850;10.662;2023-06-05T08:56:37;5.85;;;2.20;;
64932;SDS011;51446;53.850;10.662;2023-06-05T08:59:04;5.47;;;2.08;;
64932;SDS011;51446;53.850;10.662;2023-06-05T09:01:30;7.53;;;2.00;;
64932;SDS011;51446;53.850;10.662;2023-06-05T09:03:57;6.57;;;1.88;;
64932;SDS011;51446;53.850;10.662;2023-06-05T09:06:22;3.63;;;1.90;;
64932;SDS011;51446;53.850;10.662;2023-06-05T09:08:48;4.73;;;1.60;;
64932;SDS011;51446;53.850;10.662;2023-06-05T09:11:21;6.00;;;2.80;;
64932;SDS011;51446;53.850;10.662;2023-06-05T09:13:51;7.25;;;2.40;;
64932;SDS011;51446;53.850;10.662;2023-06-05T09:16:21;6.57;;;2.40;;
64932;SDS011;51446;53.850;10.662;2023-06-05T09:18:50;4.93;;;1.80;;
64932;SDS011;51446;53.850;10.662;2023-06-05T09:21:17;7.28;;;2.20;;
64932;SDS011;51446;53.850;10.662;2023-06-05T09:23:45;3.70;;;1.93;;
64932;SDS011;51446;53.850;10.662;2023-06-05T09:26:12;4.38;;;1.80;;
64932;SDS011;51446;53.850;10.662;2023-06-05T09:28:52;4.22;;;2.08;;
64932;SDS011;51446;53.850;10.662;2023-06-05T09:31:19;4.50;;;1.70;;
64932;SDS011;51446;53.850;10.662;2023-06-05T09:33:53;3.38;;;1.92;;
64932;SDS011;51446;53.850;10.662;2023-06-05T09:36:20;7.30;;;1.90;;
64932;SDS011;51446;53.850;10.662;2023-06-05T09:38:45;6.00;;;2.00;;
64932;SDS011;51446;53.850;10.662;2023-06-05T09:41:12;6.32;;;1.90;;
64932;SDS011;51446;53.850;10.662;2023-06-05T09:43:43;5.05;;;2.15;;
64932;SDS011;51446;53.850;10.662;2023-06-05T09:46:12;5.20;;;2.03;;
64932;SDS011;51446;53.850;10.662;2023-06-05T09:48:38;5.38;;;1.88;;
64932;SDS011;51446;53.850;10.662;2023-06-05T09:51:11;7.07;;;1.90;;
64932;SDS011;51446;53.850;10.662;2023-06-05T09:53:45;3.63;;;1.80;;
64932;SDS011;51446;53.850;10.662;2023-06-05T09:56:13;7.00;;;2.25;;
64932;SDS011;51446;53.850;10.662;2023-06-05T09:58:43;4.60;;;2.20;;
64932;SDS011;51446;53.850;10.662;2023-06-05T10:01:12;4.05;;;2.15;;
64932;SDS011;51446;53.850;10.662;2023-06-05T10:03:40;5.60;;;2.35;;
64932;SDS011;51446;53.850;10.662;2023-06-05T10:06:09;5.97;;;1.80;;
64932;SDS011;51446;53.850;10.662;2023-06-05T10:08:34;7.93;;;1.90;;
64932;SDS011;51446;53.850;10.662;2023-06-05T10:11:01;9.45;;;2.10;;
64932;SDS011;51446;53.850;10.662;2023-06-05T10:13:27;6.65;;;2.00;;
64932;SDS011;51446;53.850;10.662;2023-06-05T10:15:53;5.72;;;1.80;;
64932;SDS011;51446;53.850;10.662;2023-06-05T10:18:20;5.60;;;2.28;;
64932;SDS011;51446;53.850;10.662;2023-06-05T10:20:47;7.43;;;1.80;;
64932;SDS011;51446;53.850;10.662;2023-06-05T10:23:14;6.60;;;1.80;;
64932;SDS011;51446;53.850;10.662;2023-06-05T10:25:42;5.90;;;1.70;;
64932;SDS011;51446;53.850;10.662;2023-06-05T10:28:29;9.02;;;2.10;;
64932;SDS011;51446;53.850;10.662;2023-06-05T10:31:11;6.90;;;2.40;;
64932;SDS011;51446;53.850;10.662;2023-06-05T10:39:13;5.63;;;2.05;;
64932;SDS011;51446;53.850;10.662;2023-06-05T10:41:39;6.35;;;2.22;;
64932;SDS011;51446;53.850;10.662;2023-06-05T10:44:05;8.03;;;1.90;;
64932;SDS011;51446;53.850;10.662;2023-06-05T10:49:18;4.63;;;2.10;;
64932;SDS011;51446;53.850;10.662;2023-06-05T10:51:47;5.75;;;2.38;;
64932;SDS011;51446;53.850;10.662;2023-06-05T10:59:24;6.18;;;1.80;;
64932;SDS011;51446;53.850;10.662;2023-06-05T11:07:14;8.18;;;2.50;;
64932;SDS011;51446;53.850;10.662;2023-06-05T11:15:08;4.65;;;1.92;;
64932;SDS011;51446;53.850;10.662;2023-06-05T11:17:53;4.57;;;2.10;;
64932;SDS011;51446;53.850;10.662;2023-06-05T11:28:03;3.25;;;1.63;;
64932;SDS011;51446;53.850;10.662;2023-06-05T11:30:41;7.38;;;1.80;;
64932;SDS011;51446;53.850;10.662;2023-06-05T11:33:11;5.45;;;1.85;;
64932;SDS011;51446;53.850;10.662;2023-06-05T11:35:38;3.13;;;1.60;;
64932;SDS011;51446;53.850;10.662;2023-06-05T11:38:23;4.15;;;1.48;;
64932;SDS011;51446;53.850;10.662;2023-06-05T11:40:49;4.90;;;1.83;;
64932;SDS011;51446;53.850;10.662;2023-06-05T11:43:15;7.03;;;2.00;;
64932;SDS011;51446;53.850;10.662;2023-06-05T11:45:41;5.75;;;2.13;;
64932;SDS011;51446;53.850;10.662;2023-06-05T11:48:13;4.68;;;1.60;;
64932;SDS011;51446;53.850;10.662;2023-06-05T11:50:51;6.90;;;1.80;;
64932;SDS011;51446;53.850;10.662;2023-06-05T11:53:21;5.85;;;2.00;;
64932;SDS011;51446;53.850;10.662;2023-06-05T11:55:46;6.20;;;2.03;;
64932;SDS011;51446;53.850;10.662;2023-06-05T12:00:47;9.13;;;1.92;;
64932;SDS011;51446;53.850;10.662;2023-06-05T12:03:19;7.07;;;1.80;;
64932;SDS011;51446;53.850;10.662;2023-06-05T12:05:48;4.72;;;1.73;;
64932;SDS011;51446;53.850;10.662;2023-06-05T12:08:24;6.80;;;1.90;;
64932;SDS011;51446;53.850;10.662;2023-06-05T12:10:53;3.78;;;1.73;;
64932;SDS011;51446;53.850;10.662;2023-06-05T12:13:21;7.30;;;2.08;;
64932;SDS011;51446;53.850;10.662;2023-06-05T12:16:00;6.03;;;2.30;;
64932;SDS011;51446;53.850;10.662;2023-06-05T12:18:32;7.78;;;2.50;;
64932;SDS011;51446;53.850;10.662;2023-06-05T12:20:58;5.75;;;2.25;;
64932;SDS011;51446;53.850;10.662;2023-06-05T12:23:28;4.22;;;1.92;;
64932;SDS011;51446;53.850;10.662;2023-06-05T12:26:00;5.90;;;2.20;;
64932;SDS011;51446;53.850;10.662;2023-06-05T12:28:28;4.30;;;1.90;;
64932;SDS011;51446;53.850;10.662;2023-06-05T12:30:55;4.53;;;1.90;;
64932;SDS011;51446;53.850;10.662;2023-06-05T12:33:21;7.18;;;2.22;;
64932;SDS011;51446;53.850;10.662;2023-06-05T12:36:02;3.97;;;1.93;;
64932;SDS011;51446;53.850;10.662;2023-06-05T12:38:36;7.38;;;2.10;;
64932;SDS011;51446;53.850;10.662;2023-06-05T12:41:02;5.35;;;1.90;;
64932;SDS011;51446;53.850;10.662;2023-06-05T12:43:28;7.73;;;2.17;;
64932;SDS011;51446;53.850;10.662;2023-06-05T12:45:53;3.13;;;1.97;;
64932;SDS011;51446;53.850;10.662;2023-06-05T12:48:18;6.60;;;2.13;;
64932;SDS011;51446;53.850;10.662;2023-06-05T12:50:45;6.53;;;1.80;;
64932;SDS011;51446;53.850;10.662;2023-06-05T12:53:11;5.70;;;1.80;;
64932;SDS011;51446;53.850;10.662;2023-06-05T12:55:36;6.03;;;2.10;;
64932;SDS011;51446;53.850;10.662;2023-06-05T12:58:02;5.22;;;2.13;;
64932;SDS011;51446;53.850;10.662;2023-06-05T13:00:28;4.33;;;2.13;;
64932;SDS011;51446;53.850;10.662;2023-06-05T13:02:53;6.88;;;2.25;;
64932;SDS011;51446;53.850;10.662;2023-06-05T13:05:18;5.20;;;2.00;;
64932;SDS011;51446;53.850;10.662;2023-06-05T13:07:44;7.57;;;2.20;;
64932;SDS011;51446;53.850;10.662;2023-06-05T13:10:09;4.93;;;2.00;;
64932;SDS011;51446;53.850;10.662;2023-06-05T13:12:38;9.77;;;2.42;;
64932;SDS011;51446;53.850;10.662;2023-06-05T13:15:03;5.10;;;1.90;;
64932;SDS011;51446;53.850;10.662;2023-06-05T13:17:31;8.77;;;2.20;;
64932;SDS011;51446;53.850;10.662;2023-06-05T13:19:59;6.80;;;2.30;;
64932;SDS011;51446;53.850;10.662;2023-06-05T13:22:25;7.53;;;2.10;;
64932;SDS011;51446;53.850;10.662;2023-06-05T13:24:50;5.43;;;2.00;;
64932;SDS011;51446;53.850;10.662;2023-06-05T13:27:16;3.15;;;1.90;;
64932;SDS011;51446;53.850;10.662;2023-06-05T13:29:43;9.43;;;1.93;;
64932;SDS011;51446;53.850;10.662;2023-06-05T13:32:08;9.55;;;2.58;;
64932;SDS011;51446;53.850;10.662;2023-06-05T13:34:34;9.37;;;2.20;;
64932;SDS011;51446;53.850;10.662;2023-06-05T13:37:00;6.03;;;2.13;;
64932;SDS011;51446;53.850;10.662;2023-06-05T13:39:25;4.93;;;1.92;;
64932;SDS011;51446;53.850;10.662;2023-06-05T13:41:50;7.47;;;2.00;;
64932;SDS011;51446;53.850;10.662;2023-06-05T13:44:16;3.67;;;2.00;;
64932;SDS011;51446;53.850;10.662;2023-06-05T13:46:41;8.73;;;2.20;;
64932;SDS011;51446;53.850;10.662;2023-06-05T13:49:09;9.80;;;2.22;;
64932;SDS011;51446;53.850;10.662;2023-06-05T13:51:34;8.43;;;2.30;;
64932;SDS011;51446;53.850;10.662;2023-06-05T13:54:03;4.27;;;1.80;;
64932;SDS011;51446;53.850;10.662;2023-06-05T13:56:28;4.78;;;2.20;;
64932;SDS011;51446;53.850;10.662;2023-06-05T13:58:54;5.23;;;2.00;;
64932;SDS011;51446;53.850;10.662;2023-06-05T14:01:19;5.40;;;1.90;;
64932;SDS011;51446;53.850;10.662;2023-06-05T14:03:44;8.07;;;2.10;;
64932;SDS011;51446;53.850;10.662;2023-06-05T14:06:11;3.85;;;1.75;;
64932;SDS011;51446;53.850;10.662;2023-06-05T14:08:36;4.87;;;2.03;;
64932;SDS011;51446;53.850;10.662;2023-06-05T14:11:02;4.93;;;1.90;;
64932;SDS011;51446;53.850;10.662;2023-06-05T14:13:27;5.57;;;2.00;;
64932;SDS011;51446;53.850;10.662;2023-06-05T14:15:52;7.20;;;1.90;;
64932;SDS011;51446;53.850;10.662;2023-06-05T14:18:19;9.15;;;2.20;;
64932;SDS011;51446;53.850;10.662;2023-06-05T14:20:44;7.70;;;1.87;;
64932;SDS011;51446;53.850;10.662;2023-06-05T14:23:10;5.43;;;1.80;;
64932;SDS011;51446;53.850;10.662;2023-06-05T14:25:35;7.03;;;2.00;;
64932;SDS011;51446;53.850;10.662;2023-06-05T14:28:01;3.07;;;1.80;;
64932;SDS011;51446;53.850;10.662;2023-06-05T14:30:26;6.88;;;1.90;;
64932;SDS011;51446;53.850;10.662;2023-06-05T14:32:52;6.47;;;1.70;;
64932;SDS011;51446;53.850;10.662;2023-06-05T14:35:17;7.73;;;2.07;;
64932;SDS011;51446;53.850;10.662;2023-06-05T14:37:44;8.65;;;1.95;;
64932;SDS011;51446;53.850;10.662;2023-06-05T14:40:10;5.57;;;1.90;;
64932;SDS011;51446;53.850;10.662;2023-06-05T14:42:35;4.70;;;2.00;;
64932;SDS011;51446;53.850;10.662;2023-06-05T14:45:01;5.27;;;2.20;;
64932;SDS011;51446;53.850;10.662;2023-06-05T14:47:27;4.32;;;2.03;;
64932;SDS011;51446;53.850;10.662;2023-06-05T14:49:52;7.03;;;2.00;;
64932;SDS011;51446;53.850;10.662;2023-06-05T14:52:18;5.47;;;2.07;;
64932;SDS011;51446;53.850;10.662;2023-06-05T14:54:44;4.57;;;2.10;;
64932;SDS011;51446;53.850;10.662;2023-06-05T14:57:09;8.18;;;2.20;;
64932;SDS011;51446;53.850;10.662;2023-06-05T14:59:35;7.53;;;2.40;;
64932;SDS011;51446;53.850;10.662;2023-06-05T15:02:00;11.17;;;2.23;;
64932;SDS011;51446;53.850;10.662;2023-06-05T15:04:26;7.07;;;2.40;;
64932;SDS011;51446;53.850;10.662;2023-06-05T15:06:52;5.75;;;2.30;;
64932;SDS011;51446;53.850;10.662;2023-06-05T15:09:18;7.47;;;2.00;;
64932;SDS011;51446;53.850;10.662;2023-06-05T15:11:44;4.40;;;2.10;;